메인 페이지
METAR-TAF:

METAR-TAF

공항 :

발리케시르, 터키

위도: 39-37N, 경도: 027-55E, 고도: 101m

현재 날씨관측

예보는 33분 전, 13:50시(UTC)에 발표되었습니다.
남동5kt
온도 16°C
습도 59%
기압 1002 hPa
시정 10km 이상
고도 3500ft 상공 구름 보통
고도 10000ft 상공 구름 많음

METAR: LTBF 141350Z 13005KT 9999 SCT035 BKN100 16/08 Q1002 NOSIG

시각: 17:23 (14:23 UTC)

예보

예보는 3 시간 43분 전, 10:40시(UTC)에 발표되었습니다.
예보 대상 시간: 14일 12시부터 14일 21시까지 (UTC)
남남서10kt
시정 10km 이상
고도 3500ft 상공 구름 조금
고도 20000ft 상공 구름 많음

TAF: LTBF 141040Z 1412/1421 20010KT 9999 FEW035 BKN200

4,000개 이상의 공항 관측 자료 및 예보 (METAR 및 TAF 보고).

지도상에서 검색 가능한 기상관측소가 노란 점과 빨간 점으로 표시되어 있습니다.

기상관측소 명을 보려면 표시 위로 마우스를 이동하세요.

날씨 관측과 예보를 보려면 클릭하세요.

지도 변경 : 확대하려면 엑스 표시가 있는 녹색 버튼, 축소하려면 빼기 표시가 있는 녹색 버튼, 다음 페이지의 지도를 보려면 녹색 화살표를 클릭하세요.


METAR-TAF: